createdAt,value
2023-12-02T00:01:20.359Z,15.15
2023-12-02T00:04:07.862Z,15.16
2023-12-02T00:06:55.393Z,15.16
2023-12-02T00:09:43.003Z,15.15
2023-12-02T00:12:30.624Z,15.11
2023-12-02T00:15:18.164Z,15.13
2023-12-02T00:18:06.049Z,15.10
2023-12-02T00:20:53.741Z,15.12
2023-12-02T00:23:41.239Z,15.13
2023-12-02T00:26:28.747Z,15.15
2023-12-02T00:29:20.073Z,15.12
2023-12-02T00:32:07.589Z,15.12
2023-12-02T00:34:55.091Z,15.13
2023-12-02T00:37:43.209Z,15.10
2023-12-02T00:40:30.750Z,15.10
2023-12-02T00:43:18.211Z,15.06
2023-12-02T00:46:05.911Z,15.05
2023-12-02T00:48:53.508Z,15.08
2023-12-02T00:51:41.137Z,15.10
2023-12-02T00:54:28.719Z,15.11
2023-12-02T00:57:16.314Z,15.12
2023-12-02T01:00:05.352Z,15.12
2023-12-02T01:02:53.787Z,15.14
2023-12-02T01:05:41.454Z,15.14
2023-12-02T01:08:29.018Z,15.11
2023-12-02T01:11:16.572Z,15.11
2023-12-02T01:14:04.198Z,15.12
2023-12-02T01:16:51.782Z,15.13
2023-12-02T01:19:39.389Z,15.12
2023-12-02T01:22:26.910Z,15.11
2023-12-02T01:25:14.404Z,15.08
2023-12-02T01:28:02.073Z,15.12
2023-12-02T01:30:50.336Z,15.11
2023-12-02T01:33:38.225Z,15.08
2023-12-02T01:36:26.043Z,15.11
2023-12-02T01:39:13.966Z,15.07
2023-12-02T01:42:01.598Z,15.08
2023-12-02T01:44:49.157Z,15.07
2023-12-02T01:47:36.685Z,15.06
2023-12-02T01:50:24.244Z,15.09
2023-12-02T01:53:11.747Z,15.12
2023-12-02T01:55:59.426Z,15.05
2023-12-02T01:58:48.382Z,15.03
2023-12-02T02:01:35.941Z,15.07
2023-12-02T02:04:23.875Z,15.10
2023-12-02T02:07:11.448Z,15.10
2023-12-02T02:09:58.971Z,15.11
2023-12-02T02:12:46.464Z,15.11
2023-12-02T02:15:34.077Z,15.13
2023-12-02T02:18:21.881Z,15.08
2023-12-02T02:21:09.629Z,15.10
2023-12-02T02:23:57.171Z,15.12
2023-12-02T02:26:44.788Z,15.08
2023-12-02T02:29:32.300Z,15.10
2023-12-02T02:32:19.789Z,15.11
2023-12-02T02:35:07.488Z,15.08
2023-12-02T02:37:55.118Z,15.07
2023-12-02T02:40:42.601Z,15.06
2023-12-02T02:43:30.129Z,15.04
2023-12-02T02:46:18.017Z,15.05
2023-12-02T02:49:05.648Z,15.04
2023-12-02T02:51:53.368Z,15.04
2023-12-02T02:54:40.851Z,15.06
2023-12-02T02:57:28.395Z,15.02
2023-12-02T03:00:16.238Z,15.00
2023-12-02T03:03:04.457Z,15.03
2023-12-02T03:05:52.251Z,15.03
2023-12-02T03:08:40.113Z,15.04
2023-12-02T03:11:27.612Z,15.04
2023-12-02T03:14:15.167Z,15.04
2023-12-02T03:17:02.715Z,14.96
2023-12-02T03:19:50.516Z,14.99
2023-12-02T03:22:38.040Z,15.02
2023-12-02T03:25:26.651Z,15.00
2023-12-02T03:28:14.493Z,14.98
2023-12-02T03:31:02.824Z,14.92
2023-12-02T03:33:50.387Z,14.94
2023-12-02T03:36:38.029Z,14.91
2023-12-02T03:39:25.577Z,14.87
2023-12-02T03:42:13.161Z,14.92
2023-12-02T03:45:00.807Z,14.94
2023-12-02T03:47:48.853Z,14.98
2023-12-02T03:50:36.432Z,15.02
2023-12-02T03:53:23.964Z,15.03
2023-12-02T03:56:11.831Z,15.04
2023-12-02T03:58:59.409Z,15.08
2023-12-02T04:01:46.949Z,15.08
2023-12-02T04:04:34.738Z,15.07
2023-12-02T04:07:22.336Z,15.08
2023-12-02T04:10:10.393Z,14.92
2023-12-02T04:12:57.915Z,15.08
2023-12-02T04:15:47.753Z,15.08
2023-12-02T04:18:35.610Z,15.10
2023-12-02T04:21:25.248Z,14.93
2023-12-02T04:24:12.865Z,15.10
2023-12-02T04:27:00.459Z,15.10
2023-12-02T04:29:48.336Z,15.11
2023-12-02T04:32:35.989Z,15.11
2023-12-02T04:35:24.063Z,15.10
2023-12-02T04:38:11.811Z,15.09
2023-12-02T04:40:59.310Z,15.11
2023-12-02T04:43:46.822Z,15.02
2023-12-02T04:46:34.420Z,15.10
2023-12-02T04:49:21.978Z,15.08
2023-12-02T04:52:09.903Z,15.11
2023-12-02T04:54:57.387Z,15.11
2023-12-02T04:57:45.745Z,15.10
2023-12-02T05:00:33.556Z,15.12
2023-12-02T05:03:21.305Z,15.11
2023-12-02T05:06:09.558Z,15.11
2023-12-02T05:08:57.171Z,15.11
2023-12-02T05:11:44.684Z,15.11
2023-12-02T05:14:32.286Z,15.10
2023-12-02T05:17:19.781Z,15.08
2023-12-02T05:20:08.808Z,15.08
2023-12-02T05:22:56.312Z,15.10
2023-12-02T05:25:43.837Z,15.09
2023-12-02T05:28:31.435Z,15.10
2023-12-02T05:31:20.729Z,15.11
2023-12-02T05:34:08.666Z,15.10
2023-12-02T05:36:56.308Z,15.13
2023-12-02T05:39:43.787Z,15.12
2023-12-02T05:42:31.447Z,15.11
2023-12-02T05:45:19.014Z,15.12
2023-12-02T05:48:06.952Z,15.08
2023-12-02T05:50:54.576Z,15.11
2023-12-02T05:53:42.169Z,15.14
2023-12-02T05:56:29.664Z,15.15
2023-12-02T05:59:18.960Z,15.15
2023-12-02T06:02:06.530Z,15.16
2023-12-02T06:04:54.390Z,15.15
2023-12-02T06:07:41.911Z,15.16
2023-12-02T06:10:29.446Z,15.13
2023-12-02T06:13:16.926Z,15.14
2023-12-02T06:16:04.712Z,15.14
2023-12-02T06:18:52.604Z,15.11
2023-12-02T06:21:40.240Z,15.12
2023-12-02T06:24:27.850Z,15.11
2023-12-02T06:27:15.420Z,15.11
2023-12-02T06:30:03.066Z,15.12
2023-12-02T06:32:51.223Z,15.11
2023-12-02T06:35:38.865Z,15.10
2023-12-02T06:38:26.381Z,15.11
2023-12-02T06:41:13.844Z,15.13
2023-12-02T06:44:01.426Z,15.13
2023-12-02T06:46:48.924Z,15.13
2023-12-02T06:49:36.544Z,15.14
2023-12-02T06:52:24.086Z,15.14
2023-12-02T06:58:02.051Z,15.15
2023-12-02T07:00:49.665Z,15.14
2023-12-02T07:03:40.170Z,15.14
2023-12-02T07:06:28.724Z,15.13
2023-12-02T07:09:16.497Z,15.14
2023-12-02T07:12:04.452Z,15.12
2023-12-02T07:14:51.944Z,14.93
2023-12-02T07:17:39.555Z,14.99
2023-12-02T07:20:27.193Z,14.98
2023-12-02T07:23:14.709Z,14.98
2023-12-02T07:26:02.497Z,14.88
2023-12-02T07:28:50.024Z,14.85
2023-12-02T07:31:37.523Z,14.88
2023-12-02T07:34:25.111Z,14.88
2023-12-02T07:37:12.663Z,14.87
2023-12-02T07:40:00.214Z,14.86
2023-12-02T07:42:47.727Z,14.88
2023-12-02T07:45:35.207Z,14.88
2023-12-02T07:48:22.779Z,14.88
2023-12-02T07:51:10.727Z,14.88
2023-12-02T07:53:58.193Z,14.88
2023-12-02T07:56:45.730Z,14.89
2023-12-02T07:59:33.259Z,14.89
2023-12-02T08:02:21.029Z,14.92
2023-12-02T08:07:59.202Z,14.92
2023-12-02T08:10:48.689Z,14.89
2023-12-02T08:13:36.373Z,14.89
2023-12-02T08:16:23.968Z,14.91
2023-12-02T08:19:11.521Z,14.83
2023-12-02T08:21:59.032Z,14.92
2023-12-02T08:24:46.666Z,14.94
2023-12-02T08:27:34.224Z,14.93
2023-12-02T08:30:21.725Z,14.95
2023-12-02T08:33:09.213Z,14.93
2023-12-02T08:35:56.730Z,14.94
2023-12-02T08:38:44.698Z,14.92
2023-12-02T08:41:32.550Z,14.94
2023-12-02T08:44:20.159Z,14.95
2023-12-02T08:47:07.824Z,14.93
2023-12-02T08:49:55.411Z,14.85
2023-12-02T08:52:42.986Z,14.86
2023-12-02T08:55:30.572Z,14.92
2023-12-02T08:58:18.159Z,14.90
2023-12-02T09:01:05.690Z,14.94
2023-12-02T09:03:53.603Z,14.89
2023-12-02T09:06:41.857Z,14.88
2023-12-02T09:09:29.700Z,14.90
2023-12-02T09:12:17.238Z,14.91
2023-12-02T09:15:28.093Z,14.91
2023-12-02T09:18:27.239Z,14.85
2023-12-02T09:21:20.599Z,14.69
2023-12-02T09:24:26.689Z,14.87
2023-12-02T09:27:34.157Z,14.89
2023-12-02T09:30:23.259Z,14.94
2023-12-02T09:33:10.896Z,14.83
2023-12-02T09:35:59.372Z,14.91
2023-12-02T09:38:46.890Z,14.87
2023-12-02T09:41:40.303Z,14.97
2023-12-02T09:44:34.434Z,14.98
2023-12-02T09:47:23.146Z,14.97
2023-12-02T09:50:12.891Z,15.01
2023-12-02T09:53:07.320Z,15.02
2023-12-02T09:56:02.624Z,15.03
2023-12-02T09:58:51.088Z,15.00
2023-12-02T10:01:52.283Z,15.02
2023-12-02T10:04:48.831Z,15.00
2023-12-02T10:07:48.124Z,15.01
2023-12-02T10:10:44.297Z,15.05
2023-12-02T10:13:50.643Z,14.96
2023-12-02T10:16:39.064Z,14.93
2023-12-02T10:19:26.746Z,14.89
2023-12-02T10:22:18.197Z,14.99
2023-12-02T10:25:07.245Z,15.01
2023-12-02T10:27:57.651Z,15.02
2023-12-02T10:30:51.005Z,15.07
2023-12-02T10:33:54.931Z,14.98
2023-12-02T10:36:45.686Z,14.93
2023-12-02T10:39:49.720Z,14.99
2023-12-02T10:42:57.515Z,14.81
2023-12-02T10:45:45.177Z,14.95
2023-12-02T10:48:32.762Z,14.97
2023-12-02T10:51:20.643Z,14.99
2023-12-02T10:54:10.034Z,15.03
2023-12-02T10:57:05.605Z,14.97
2023-12-02T10:59:56.610Z,15.01
2023-12-02T11:02:58.561Z,15.05
2023-12-02T11:05:49.146Z,15.11
2023-12-02T11:08:57.950Z,15.13
2023-12-02T11:11:54.562Z,15.07
2023-12-02T11:14:43.264Z,14.97
2023-12-02T11:17:45.593Z,14.94
2023-12-02T11:21:02.726Z,14.91
2023-12-02T11:23:51.385Z,14.96
2023-12-02T11:26:53.269Z,14.92
2023-12-02T11:29:46.913Z,14.87
2023-12-02T11:32:54.144Z,15.00
2023-12-02T11:36:01.885Z,15.04
2023-12-02T11:39:15.620Z,15.07
2023-12-02T11:42:13.142Z,15.06
2023-12-02T11:45:11.004Z,15.06
2023-12-02T11:48:12.571Z,15.06
2023-12-02T11:51:15.604Z,15.06
2023-12-02T11:54:21.879Z,15.02
2023-12-02T11:57:10.078Z,14.96
2023-12-02T12:00:07.795Z,15.00
2023-12-02T12:03:04.170Z,15.07
2023-12-02T12:05:51.742Z,15.12
2023-12-02T12:09:01.829Z,15.13
2023-12-02T12:11:52.168Z,15.13
2023-12-02T12:14:40.387Z,15.16
2023-12-02T12:17:28.411Z,15.16
2023-12-02T12:20:20.108Z,15.19
2023-12-02T12:23:07.947Z,15.18
2023-12-02T12:25:55.434Z,15.14
2023-12-02T12:28:42.943Z,15.19
2023-12-02T12:31:32.072Z,15.10
2023-12-02T12:34:21.473Z,15.12
2023-12-02T12:37:11.240Z,15.16
2023-12-02T12:39:59.686Z,15.19
2023-12-02T12:42:50.412Z,15.14
2023-12-02T12:45:39.559Z,15.17
2023-12-02T12:48:28.148Z,15.19
2023-12-02T12:51:18.137Z,15.20
2023-12-02T12:54:09.634Z,15.16
2023-12-02T12:57:02.318Z,15.23
2023-12-02T12:59:54.570Z,15.24
2023-12-02T13:03:01.131Z,15.24
2023-12-02T13:05:52.322Z,15.27
2023-12-02T13:08:47.020Z,15.28
2023-12-02T13:11:47.113Z,15.28
2023-12-02T13:14:41.442Z,15.30
2023-12-02T13:17:29.586Z,15.30
2023-12-02T13:20:17.708Z,15.24
2023-12-02T13:23:07.346Z,15.24
2023-12-02T13:26:02.765Z,15.22
2023-12-02T13:28:50.340Z,15.21
2023-12-02T13:31:41.723Z,15.21
2023-12-02T13:34:41.856Z,15.22
2023-12-02T13:37:38.649Z,15.08
2023-12-02T13:40:28.561Z,15.03
2023-12-02T13:43:16.912Z,15.11
2023-12-02T13:46:07.513Z,15.15
2023-12-02T13:49:01.109Z,15.20
2023-12-02T13:52:01.916Z,15.19
2023-12-02T13:55:08.426Z,15.21
2023-12-02T13:58:16.060Z,15.24
2023-12-02T14:01:25.397Z,15.17
2023-12-02T14:04:31.992Z,15.20
2023-12-02T14:07:24.100Z,15.23
2023-12-02T14:10:13.269Z,15.25
2023-12-02T14:13:00.769Z,15.26
2023-12-02T14:16:01.008Z,15.26
2023-12-02T14:18:51.378Z,15.27
2023-12-02T14:21:45.857Z,15.29
2023-12-02T14:24:46.697Z,15.12
2023-12-02T14:27:40.240Z,15.13
2023-12-02T14:30:27.780Z,15.21
2023-12-02T14:33:36.754Z,15.23
2023-12-02T14:36:36.810Z,15.27
2023-12-02T14:39:39.496Z,15.27
2023-12-02T14:42:27.035Z,15.26
2023-12-02T14:45:14.938Z,15.27
2023-12-02T14:48:09.588Z,15.22
2023-12-02T14:50:58.606Z,15.24
2023-12-02T14:53:46.367Z,15.20
2023-12-02T14:56:33.824Z,15.24
2023-12-02T14:59:21.972Z,15.28
2023-12-02T15:02:09.623Z,15.26
2023-12-02T15:04:57.162Z,15.30
2023-12-02T15:07:45.971Z,15.30
2023-12-02T15:10:40.058Z,15.32
2023-12-02T15:13:29.960Z,15.32
2023-12-02T15:16:18.247Z,15.33
2023-12-02T15:19:10.551Z,15.32
2023-12-02T15:22:07.811Z,15.32
2023-12-02T15:24:55.538Z,15.31
2023-12-02T15:27:43.198Z,15.28
2023-12-02T15:30:30.756Z,15.24
2023-12-02T15:33:19.164Z,15.26
2023-12-02T15:36:08.609Z,15.30
2023-12-02T15:38:57.120Z,15.32
2023-12-02T15:41:44.908Z,15.33
2023-12-02T15:44:42.679Z,15.32
2023-12-02T15:47:30.269Z,15.34
2023-12-02T15:50:17.845Z,15.34
2023-12-02T15:53:05.451Z,15.36
2023-12-02T15:55:54.222Z,15.36
2023-12-02T15:58:41.924Z,15.36
2023-12-02T16:01:29.784Z,15.36
2023-12-02T16:04:17.792Z,15.37
2023-12-02T16:07:05.498Z,15.37
2023-12-02T16:09:53.166Z,15.39
2023-12-02T16:12:44.237Z,15.38
2023-12-02T16:15:32.273Z,15.38
2023-12-02T16:18:20.303Z,15.36
2023-12-02T16:21:10.688Z,15.33
2023-12-02T16:23:58.416Z,15.30
2023-12-02T16:26:46.063Z,15.31
2023-12-02T16:29:33.756Z,15.28
2023-12-02T16:32:23.877Z,15.20
2023-12-02T16:35:12.398Z,15.21
2023-12-02T16:37:59.939Z,15.19
2023-12-02T16:40:52.128Z,15.12
2023-12-02T16:43:40.738Z,15.05
2023-12-02T16:46:28.480Z,15.04
2023-12-02T16:49:19.609Z,15.11
2023-12-02T16:52:07.459Z,15.16
2023-12-02T16:54:54.949Z,15.20
2023-12-02T16:57:46.906Z,15.21
2023-12-02T17:00:39.868Z,15.23
2023-12-02T17:03:29.554Z,15.18
2023-12-02T17:06:20.669Z,15.19
2023-12-02T17:09:21.163Z,15.13
2023-12-02T17:12:10.635Z,15.16
2023-12-02T17:15:02.706Z,15.20
2023-12-02T17:17:51.082Z,15.20
2023-12-02T17:20:38.603Z,15.25
2023-12-02T17:23:28.708Z,15.27
2023-12-02T17:26:20.073Z,15.29
2023-12-02T17:29:13.564Z,15.30
2023-12-02T17:32:01.314Z,15.29
2023-12-02T17:34:48.826Z,15.30
2023-12-02T17:37:36.355Z,15.31
2023-12-02T17:40:25.758Z,15.31
2023-12-02T17:43:13.602Z,15.31
2023-12-02T17:46:01.107Z,15.32
2023-12-02T17:48:48.776Z,15.32
2023-12-02T17:51:36.409Z,15.33
2023-12-02T17:54:23.978Z,15.34
2023-12-02T17:57:11.574Z,15.34
2023-12-02T17:59:59.087Z,15.33
2023-12-02T18:02:46.597Z,15.35
2023-12-02T18:05:34.270Z,15.34
2023-12-02T18:08:21.788Z,15.34
2023-12-02T18:11:09.596Z,15.34
2023-12-02T18:13:57.120Z,15.34
2023-12-02T18:16:44.622Z,15.35
2023-12-02T18:19:32.176Z,15.37
2023-12-02T18:22:19.711Z,15.36
2023-12-02T18:25:07.448Z,15.35
2023-12-02T18:27:54.946Z,15.34
2023-12-02T18:30:43.996Z,15.36
2023-12-02T18:33:33.282Z,15.35
2023-12-02T18:36:20.887Z,15.36
2023-12-02T18:39:08.428Z,15.36
2023-12-02T18:41:55.953Z,15.35
2023-12-02T18:44:43.572Z,15.37
2023-12-02T18:47:31.128Z,15.36
2023-12-02T18:50:19.015Z,15.36
2023-12-02T18:53:06.593Z,15.33
2023-12-02T18:55:54.134Z,15.34
2023-12-02T18:58:41.982Z,15.31
2023-12-02T19:01:29.592Z,15.30
2023-12-02T19:04:17.252Z,15.28
2023-12-02T19:07:06.505Z,15.26
2023-12-02T19:09:54.206Z,15.27
2023-12-02T19:12:41.785Z,15.23
2023-12-02T19:15:29.398Z,15.19
2023-12-02T19:18:17.016Z,15.18
2023-12-02T19:21:04.676Z,15.19
2023-12-02T19:23:52.298Z,15.21
2023-12-02T19:26:39.805Z,15.24
2023-12-02T19:29:27.310Z,15.25
2023-12-02T19:32:14.893Z,15.24
2023-12-02T19:35:02.615Z,15.25
2023-12-02T19:37:53.177Z,15.20
2023-12-02T19:40:40.707Z,15.23
2023-12-02T19:43:28.229Z,15.24
2023-12-02T19:46:16.199Z,15.24
2023-12-02T19:49:04.014Z,15.24
2023-12-02T19:51:51.711Z,15.26
2023-12-02T19:54:39.329Z,15.25
2023-12-02T19:57:26.957Z,15.24
2023-12-02T20:00:14.768Z,15.24
2023-12-02T20:03:02.349Z,15.23
2023-12-02T20:05:49.840Z,15.24
2023-12-02T20:08:37.406Z,15.23
2023-12-02T20:11:43.725Z,15.26
2023-12-02T20:14:32.436Z,15.23
2023-12-02T20:17:20.203Z,15.24
2023-12-02T20:20:08.016Z,15.24
2023-12-02T20:22:55.502Z,15.24
2023-12-02T20:25:43.029Z,15.24
2023-12-02T20:28:30.524Z,15.26
2023-12-02T20:31:18.056Z,15.27
2023-12-02T20:34:05.629Z,15.24
2023-12-02T20:36:53.214Z,15.24
2023-12-02T20:39:40.740Z,15.20
2023-12-02T20:42:28.329Z,15.15
2023-12-02T20:45:16.560Z,15.12
2023-12-02T20:48:04.399Z,15.16
2023-12-02T20:50:51.969Z,15.16
2023-12-02T20:53:39.536Z,15.05
2023-12-02T20:56:27.381Z,15.08
2023-12-02T20:59:14.968Z,15.14
2023-12-02T21:02:02.964Z,15.16
2023-12-02T21:04:50.484Z,15.10
2023-12-02T21:07:37.994Z,15.07
2023-12-02T21:10:26.362Z,15.14
2023-12-02T21:13:13.962Z,15.16
2023-12-02T21:16:01.645Z,15.19
2023-12-02T21:18:49.669Z,15.20
2023-12-02T21:21:37.366Z,15.20
2023-12-02T21:24:24.900Z,15.16
2023-12-02T21:27:12.480Z,15.11
2023-12-02T21:30:00.038Z,15.12
2023-12-02T21:32:47.577Z,15.12
2023-12-02T21:35:36.242Z,15.05
2023-12-02T21:38:46.221Z,15.03
2023-12-02T21:41:36.337Z,15.04
2023-12-02T21:44:23.879Z,15.05
2023-12-02T21:47:17.525Z,14.97
2023-12-02T21:50:07.401Z,14.98
2023-12-02T21:52:55.728Z,15.02
2023-12-02T21:55:43.215Z,15.05
2023-12-02T21:58:33.782Z,15.07
2023-12-02T22:01:21.277Z,15.09
2023-12-02T22:04:09.334Z,15.12
2023-12-02T22:06:57.724Z,15.14
2023-12-02T22:09:45.349Z,15.10
2023-12-02T22:12:39.791Z,15.04
2023-12-02T22:15:39.070Z,14.99
2023-12-02T22:18:26.785Z,14.97
2023-12-02T22:21:14.376Z,14.90
2023-12-02T22:24:01.918Z,14.93
2023-12-02T22:26:49.572Z,14.97
2023-12-02T22:29:40.300Z,14.88
2023-12-02T22:32:27.944Z,14.87
2023-12-02T22:35:15.745Z,14.88
2023-12-02T22:38:04.693Z,14.80
2023-12-02T22:40:52.277Z,14.81
2023-12-02T22:43:41.378Z,14.74
2023-12-02T22:46:28.952Z,14.87
2023-12-02T22:49:26.695Z,14.88
2023-12-02T22:52:18.323Z,14.82
2023-12-02T22:55:06.104Z,14.72
2023-12-02T22:57:53.663Z,14.81
2023-12-02T23:00:41.257Z,14.83
2023-12-02T23:03:28.990Z,14.77
2023-12-02T23:06:16.598Z,14.70
2023-12-02T23:09:08.243Z,14.68
2023-12-02T23:11:56.082Z,14.66
2023-12-02T23:14:56.049Z,14.70
2023-12-02T23:17:43.689Z,14.73
2023-12-02T23:20:32.792Z,14.79
2023-12-02T23:23:22.717Z,14.73
2023-12-02T23:26:11.041Z,14.80
2023-12-02T23:28:58.556Z,14.82
2023-12-02T23:31:46.487Z,14.79
2023-12-02T23:34:34.096Z,14.81
2023-12-02T23:37:24.945Z,14.86
2023-12-02T23:40:19.990Z,14.91
2023-12-02T23:43:13.648Z,14.95
2023-12-02T23:46:01.297Z,14.97
2023-12-02T23:48:48.958Z,14.98
2023-12-02T23:51:36.546Z,14.96
2023-12-02T23:54:24.154Z,14.98
2023-12-02T23:57:11.886Z,14.97
2023-12-02T23:59:59.613Z,14.96
